^^
Datos históricos de la estación: Murcia-Puente Tocinos
Diario Informe para Febrero 24, 2019 Unidades:  Ambas    Ingés   Métrico
Diario Semanal Mensual Anual
  Máxima: Mínima: Promedio:
Temperatura: 66 °F /  18.9 °C 57 °F /  13.9 °C 62.1 °F /  16.7 °C
Punto de rocio: 46 °F /  7.8 °C 39.2 °F /  4 °C 41.4 °F /  5.2 °C
Humedad: 65% 38% 47%
Velocidad viento: 20.1mph /  32.4km/h - 11.1mph /  17.9km/h
Racha viento: 37mph /  59.5km/h - -
Viento- - OSO
Presión: 29.9 in /  1011.4 hPa 29.6 in /  1002.2 hPa -
Precipitación: 0 in /  0.0 mm    
 
 
Tabla de datos para Febrero 24, 2019
Hora Temperatura Punto de rocio Presión Viento Velocidad viento Racha viento Humedad Intensidad lluvia(por hora) Nubes
00:04 63 °F /  17.2 °C 39.9 °F /  4.4 °C 29.6in /  1002.6hPa Oeste 9.2mph /  14.8km/h 23.5mph /  37.8km/h 42.7% 0in /  0.0mm
00:09 63.1 °F /  17.3 °C 39.6 °F /  4.2 °C 29.6in /  1002.6hPa Oeste 8.9mph /  14.3km/h 23mph /  37km/h 42% 0in /  0.0mm
00:14 63 °F /  17.2 °C 39.9 °F /  4.4 °C 29.6in /  1002.6hPa ONO 8.7mph /  14km/h 17.3mph /  27.8km/h 42.8% 0in /  0.0mm
00:19 62.4 °F /  16.9 °C 39.9 °F /  4.4 °C 29.6in /  1002.9hPa NO 7.8mph /  12.5km/h 17mph /  27.4km/h 43.3% 0in /  0.0mm
00:24 61.9 °F /  16.6 °C 39.7 °F /  4.3 °C 29.6in /  1002.9hPa ONO 6.9mph /  11.1km/h 15mph /  24.1km/h 44% 0in /  0.0mm
00:29 61.5 °F /  16.4 °C 39.9 °F /  4.4 °C 29.6in /  1002.9hPa ONO 8mph /  12.8km/h 17.3mph /  27.8km/h 45% 0in /  0.0mm
00:34 61.3 °F /  16.3 °C 39.7 °F /  4.3 °C 29.6in /  1003.1hPa ONO 8.7mph /  14km/h 17mph /  27.4km/h 45% 0in /  0.0mm
00:39 61.3 °F /  16.3 °C 39.7 °F /  4.3 °C 29.6in /  1003.1hPa ONO 8.6mph /  13.8km/h 15.2mph /  24.5km/h 45% 0in /  0.0mm
00:44 61.5 °F /  16.4 °C 39.9 °F /  4.4 °C 29.6in /  1003.1hPa ONO 8.5mph /  13.7km/h 16.8mph /  27km/h 45% 0in /  0.0mm
00:49 61.5 °F /  16.4 °C 39.9 °F /  4.4 °C 29.6in /  1003.3hPa Oeste 8.9mph /  14.3km/h 17mph /  27.4km/h 45% 0in /  0.0mm
00:54 61.5 °F /  16.4 °C 39.9 °F /  4.4 °C 29.6in /  1003.3hPa Oeste 9.2mph /  14.8km/h 21.3mph /  34.3km/h 45% 0in /  0.0mm
00:59 61.9 °F /  16.6 °C 40.3 °F /  4.6 °C 29.6in /  1003.3hPa Oeste 10.4mph /  16.8km/h 23.5mph /  37.8km/h 45% 0in /  0.0mm
01:04 62.4 °F /  16.9 °C 40.3 °F /  4.6 °C 29.6in /  1003.3hPa Oeste 11.2mph /  18km/h 27.6mph /  44.4km/h 44% 0in /  0.0mm
01:09 62.6 °F /  17 °C 40.3 °F /  4.6 °C 29.6in /  1003.0hPa Oeste 12.2mph /  19.7km/h 28mph /  45.1km/h 44% 0in /  0.0mm
01:14 62.4 °F /  16.9 °C 40.3 °F /  4.6 °C 29.6in /  1003.0hPa Oeste 13mph /  20.9km/h 23mph /  37km/h 44% 0in /  0.0mm
01:19 62.2 °F /  16.8 °C 40.1 °F /  4.5 °C 29.6in /  1003.1hPa Oeste 12.6mph /  20.3km/h 29.9mph /  48.1km/h 44% 0in /  0.0mm
01:24 62.6 °F /  17 °C 40.3 °F /  4.6 °C 29.6in /  1003.1hPa Oeste 12.3mph /  19.8km/h 34.5mph /  55.5km/h 44% 0in /  0.0mm
01:29 63 °F /  17.2 °C 40.8 °F /  4.9 °C 29.6in /  1003.1hPa Oeste 13.7mph /  22.1km/h 35mph /  56.3km/h 44% 0in /  0.0mm
01:34 63.1 °F /  17.3 °C 40.8 °F /  4.9 °C 29.6in /  1003.1hPa Oeste 14.7mph /  23.7km/h 31mph /  49.9km/h 44% 0in /  0.0mm
01:39 63.1 °F /  17.3 °C 40.8 °F /  4.9 °C 29.6in /  1003.1hPa Oeste 14.3mph /  23km/h 25.6mph /  41.2km/h 44% 0in /  0.0mm
01:44 63.1 °F /  17.3 °C 40.8 °F /  4.9 °C 29.6in /  1003.1hPa Oeste 14mph /  22.5km/h 34.8mph /  56km/h 43.9% 0in /  0.0mm
01:49 63.3 °F /  17.4 °C 40.6 °F /  4.8 °C 29.6in /  1003.4hPa Oeste 15.1mph /  24.3km/h 35mph /  56.3km/h 43.5% 0in /  0.0mm
01:54 63.1 °F /  17.3 °C 40.8 °F /  4.9 °C 29.6in /  1003.4hPa ONO 15.9mph /  25.6km/h 35mph /  56.3km/h 44% 0in /  0.0mm
01:59 63 °F /  17.2 °C 40.6 °F /  4.8 °C 29.6in /  1003.4hPa Oeste 15.5mph /  24.9km/h 30mph /  48.3km/h 44% 0in /  0.0mm
02:04 62.8 °F /  17.1 °C 40.5 °F /  4.7 °C 29.6in /  1003.4hPa Oeste 15.2mph /  24.5km/h 26mph /  41.8km/h 44% 0in /  0.0mm
02:09 62.8 °F /  17.1 °C 40.5 °F /  4.7 °C 29.6in /  1003.2hPa Oeste 13.7mph /  22.1km/h 25.3mph /  40.7km/h 44.1% 0in /  0.0mm
02:14 62.8 °F /  17.1 °C 40.5 °F /  4.7 °C 29.6in /  1003.2hPa OSO 12.5mph /  20.1km/h 25.3mph /  40.7km/h 44.1% 0in /  0.0mm
02:19 62.4 °F /  16.9 °C 40.8 °F /  4.9 °C 29.6in /  1003.2hPa Oeste 12.5mph /  20.1km/h 25.3mph /  40.7km/h 45% 0in /  0.0mm
02:24 62.4 °F /  16.9 °C 40.8 °F /  4.9 °C 29.6in /  1003.1hPa OSO 12.5mph /  20.1km/h 25.6mph /  41.2km/h 45% 0in /  0.0mm
02:29 62.2 °F /  16.8 °C 40.6 °F /  4.8 °C 29.6in /  1003.1hPa Oeste 13mph /  21km/h 26mph /  41.8km/h 45% 0in /  0.0mm
02:34 62.2 °F /  16.8 °C 40.6 °F /  4.8 °C 29.6in /  1003.1hPa Oeste 13.5mph /  21.7km/h 25mph /  40.2km/h 45% 0in /  0.0mm
02:39 62.1 °F /  16.7 °C 40.8 °F /  4.9 °C 29.6in /  1002.9hPa OSO 12.8mph /  20.6km/h 22mph /  35.4km/h 45.8% 0in /  0.0mm
02:44 61.9 °F /  16.6 °C 40.8 °F /  4.9 °C 29.6in /  1002.9hPa OSO 12.3mph /  19.8km/h 23.5mph /  37.8km/h 46% 0in /  0.0mm
02:49 61.9 °F /  16.6 °C 40.8 °F /  4.9 °C 29.6in /  1002.9hPa Oeste 12.1mph /  19.4km/h 23mph /  37km/h 46% 0in /  0.0mm
02:54 61.5 °F /  16.4 °C 40.5 °F /  4.7 °C 29.6in /  1002.8hPa OSO 11.8mph /  19km/h 24.6mph /  39.6km/h 46% 0in /  0.0mm
02:59 61.7 °F /  16.5 °C 40.6 °F /  4.8 °C 29.6in /  1002.8hPa Oeste 12.6mph /  20.2km/h 25.3mph /  40.7km/h 46% 0in /  0.0mm
03:04 61.9 °F /  16.6 °C 40.3 °F /  4.6 °C 29.6in /  1002.8hPa Oeste 13mph /  20.9km/h 25mph /  40.2km/h 45% 0in /  0.0mm
03:09 61.9 °F /  16.6 °C 40.3 °F /  4.6 °C 29.6in /  1002.3hPa Oeste 13mph /  20.9km/h 24.2mph /  38.9km/h 45% 0in /  0.0mm
03:14 61.9 °F /  16.6 °C 40.3 °F /  4.6 °C 29.6in /  1002.3hPa Oeste 13mph /  20.9km/h 23mph /  37km/h 45% 0in /  0.0mm
03:19 61.9 °F /  16.6 °C 40.3 °F /  4.6 °C 29.6in /  1002.3hPa Oeste 12.3mph /  19.8km/h 33.5mph /  53.9km/h 45% 0in /  0.0mm
03:24 62.1 °F /  16.7 °C 40.5 °F /  4.7 °C 29.6in /  1002.2hPa Oeste 11.8mph /  19km/h 33mph /  53.1km/h 45% 0in /  0.0mm
03:29 62.1 °F /  16.7 °C 40.5 °F /  4.7 °C 29.6in /  1002.2hPa Oeste 13.3mph /  21.4km/h 28.8mph /  46.3km/h 45% 0in /  0.0mm
03:34 62.2 °F /  16.8 °C 40.6 °F /  4.8 °C 29.6in /  1002.5hPa Oeste 14.5mph /  23.3km/h 29mph /  46.7km/h 45% 0in /  0.0mm
03:39 62.1 °F /  16.7 °C 40.5 °F /  4.7 °C 29.6in /  1002.5hPa Oeste 14.9mph /  24km/h 31.3mph /  50.4km/h 45% 0in /  0.0mm
03:44 62.2 °F /  16.8 °C 40.6 °F /  4.8 °C 29.6in /  1002.5hPa Oeste 15.2mph /  24.5km/h 31mph /  49.9km/h 45% 0in /  0.0mm
03:49 62.2 °F /  16.8 °C 40.6 °F /  4.8 °C 29.6in /  1002.5hPa Oeste 15.2mph /  24.5km/h 28.8mph /  46.3km/h 45% 0in /  0.0mm
03:54 62.2 °F /  16.8 °C 40.6 °F /  4.8 °C 29.6in /  1002.3hPa Oeste 15.2mph /  24.5km/h 33.7mph /  54.2km/h 45% 0in /  0.0mm
03:59 62.4 °F /  16.9 °C 40.3 °F /  4.6 °C 29.6in /  1002.3hPa Oeste 16.8mph /  27.1km/h 34mph /  54.7km/h 44.1% 0in /  0.0mm
04:04 62.4 °F /  16.9 °C 40.6 °F /  4.8 °C 29.6in /  1002.4hPa Oeste 17.8mph /  28.7km/h 31.3mph /  50.4km/h 44.7% 0in /  0.0mm
04:09 62.2 °F /  16.8 °C 40.6 °F /  4.8 °C 29.6in /  1002.4hPa Oeste 17mph /  27.3km/h 31mph /  49.9km/h 45% 0in /  0.0mm
04:14 62.4 °F /  16.9 °C 40.5 °F /  4.7 °C 29.6in /  1002.4hPa Oeste 16.3mph /  26.2km/h 32.2mph /  51.8km/h 44.4% 0in /  0.0mm
04:19 62.2 °F /  16.8 °C 40.6 °F /  4.8 °C 29.6in /  1002.4hPa Oeste 17mph /  27.4km/h 32.2mph /  51.8km/h 45% 0in /  0.0mm
04:24 62.4 °F /  16.9 °C 40.8 °F /  4.9 °C 29.6in /  1002.4hPa Oeste 17.5mph /  28.2km/h 34.4mph /  55.4km/h 45% 0in /  0.0mm
04:29 62.4 °F /  16.9 °C 40.8 °F /  4.9 °C 29.6in /  1002.4hPa Oeste 18.1mph /  29.1km/h 34mph /  54.7km/h 45% 0in /  0.0mm
04:34 62.2 °F /  16.8 °C 40.6 °F /  4.8 °C 29.6in /  1002.4hPa Oeste 18.5mph /  29.8km/h 31.1mph /  50.1km/h 45% 0in /  0.0mm
04:39 62.2 °F /  16.8 °C 40.6 °F /  4.8 °C 29.6in /  1002.4hPa Oeste 17.5mph /  28.2km/h 33.5mph /  53.9km/h 45% 0in /  0.0mm
04:44 62.2 °F /  16.8 °C 40.6 °F /  4.8 °C 29.6in /  1002.4hPa Oeste 16.8mph /  27km/h 33mph /  53.1km/h 45% 0in /  0.0mm
04:49 62.1 °F /  16.7 °C 40.6 °F /  4.8 °C 29.6in /  1002.5hPa Oeste 16.2mph /  26km/h 29mph /  46.7km/h 45.2% 0in /  0.0mm
04:54 61.9 °F /  16.6 °C 40.8 °F /  4.9 °C 29.6in /  1002.5hPa Oeste 15.6mph /  25.1km/h 27.9mph /  44.9km/h 45.7% 0in /  0.0mm
04:59 62.2 °F /  16.8 °C 40.6 °F /  4.8 °C 29.6in /  1002.5hPa Oeste 15.8mph /  25.4km/h 32.4mph /  52.1km/h 45% 0in /  0.0mm
05:04 62.1 °F /  16.7 °C 40.5 °F /  4.7 °C 29.6in /  1002.5hPa Oeste 15.9mph /  25.6km/h 32mph /  51.5km/h 45% 0in /  0.0mm
05:09 62.1 °F /  16.7 °C 40.5 °F /  4.7 °C 29.6in /  1002.4hPa Oeste 15.7mph /  25.3km/h 29mph /  46.7km/h 45% 0in /  0.0mm
05:14 61.9 °F /  16.6 °C 40.8 °F /  4.9 °C 29.6in /  1002.4hPa Oeste 15.6mph /  25.1km/h 27mph /  43.5km/h 45.8% 0in /  0.0mm
05:19 61.9 °F /  16.6 °C 40.8 °F /  4.9 °C 29.6in /  1002.4hPa Oeste 14.4mph /  23.2km/h 25.3mph /  40.7km/h 46% 0in /  0.0mm
05:24 61.9 °F /  16.6 °C 40.8 °F /  4.9 °C 29.6in /  1002.4hPa Oeste 13.5mph /  21.7km/h 28.6mph /  46km/h 46% 0in /  0.0mm
05:29 62.1 °F /  16.7 °C 40.6 °F /  4.8 °C 29.6in /  1002.4hPa Oeste 15mph /  24.2km/h 32.4mph /  52.1km/h 45.4% 0in /  0.0mm
05:34 62.1 °F /  16.7 °C 41 °F /  5 °C 29.6in /  1002.4hPa Oeste 16.3mph /  26.2km/h 32mph /  51.5km/h 46% 0in /  0.0mm
05:39 62.1 °F /  16.7 °C 41 °F /  5 °C 29.6in /  1002.4hPa Oeste 15.7mph /  25.3km/h 29mph /  46.7km/h 46% 0in /  0.0mm
05:44 61.9 °F /  16.6 °C 40.8 °F /  4.9 °C 29.6in /  1002.4hPa Oeste 15.2mph /  24.5km/h 25.3mph /  40.7km/h 46% 0in /  0.0mm
05:49 61.9 °F /  16.6 °C 40.8 °F /  4.9 °C 29.6in /  1002.5hPa Oeste 15.2mph /  24.5km/h 26.5mph /  42.6km/h 46% 0in /  0.0mm
05:54 61.7 °F /  16.5 °C 40.6 °F /  4.8 °C 29.6in /  1002.5hPa ONO 15.2mph /  24.5km/h 26mph /  41.8km/h 46% 0in /  0.0mm
05:59 61.5 °F /  16.4 °C 40.6 °F /  4.8 °C 29.6in /  1002.5hPa Oeste 14.1mph /  22.7km/h 26.8mph /  43.1km/h 46.2% 0in /  0.0mm
06:04 61.9 °F /  16.6 °C 40.8 °F /  4.9 °C 29.6in /  1002.5hPa Oeste 13.5mph /  21.7km/h 33.4mph /  53.8km/h 46% 0in /  0.0mm
06:09 61.7 °F /  16.5 °C 40.8 °F /  4.9 °C 29.6in /  1002.5hPa Oeste 15mph /  24.2km/h 33mph /  53.1km/h 46.4% 0in /  0.0mm
06:14 61.5 °F /  16.4 °C 41.2 °F /  5.1 °C 29.6in /  1002.5hPa Oeste 16.3mph /  26.2km/h 36.8mph /  59.2km/h 47% 0in /  0.0mm
06:19 61.3 °F /  16.3 °C 41 °F /  5 °C 29.6in /  1002.5hPa Oeste 15mph /  24.2km/h 37mph /  59.5km/h 47% 0in /  0.0mm
06:24 61.2 °F /  16.2 °C 40.8 °F /  4.9 °C 29.6in /  1002.3hPa Oeste 14mph /  22.5km/h 23.5mph /  37.8km/h 47% 0in /  0.0mm
06:29 61.2 °F /  16.2 °C 40.8 °F /  4.9 °C 29.6in /  1002.3hPa Oeste 14.4mph /  23.1km/h 25.6mph /  41.2km/h 47% 0in /  0.0mm
06:34 61.3 °F /  16.3 °C 40.8 °F /  4.9 °C 29.6in /  1002.8hPa ONO 14.7mph /  23.7km/h 27.6mph /  44.4km/h 47% 0in /  0.0mm
06:39 61.3 °F /  16.3 °C 40.8 °F /  4.9 °C 29.6in /  1002.8hPa ONO 14.7mph /  23.7km/h 28mph /  45.1km/h 47% 0in /  0.0mm
06:44 61.3 °F /  16.3 °C 40.8 °F /  4.9 °C 29.6in /  1002.8hPa Oeste 14.7mph /  23.7km/h 33.5mph /  53.9km/h 47% 0in /  0.0mm
06:49 61.2 °F /  16.2 °C 41.2 °F /  5.1 °C 29.6in /  1002.8hPa ONO 16mph /  25.7km/h 33mph /  53.1km/h 47.8% 0in /  0.0mm
06:54 61.2 °F /  16.2 °C 41.4 °F /  5.2 °C 29.6in /  1002.7hPa Oeste 17mph /  27.4km/h 30mph /  48.3km/h 48% 0in /  0.0mm
06:59 61.2 °F /  16.2 °C 41.2 °F /  5.1 °C 29.6in /  1002.7hPa Oeste 16.6mph /  26.7km/h 29mph /  46.7km/h 47.7% 0in /  0.0mm
07:04 61.2 °F /  16.2 °C 40.8 °F /  4.9 °C 29.6in /  1002.7hPa ONO 16.3mph /  26.2km/h 25.3mph /  40.7km/h 47% 0in /  0.0mm
07:09 61.2 °F /  16.2 °C 40.8 °F /  4.9 °C 29.6in /  1002.5hPa ONO 15.5mph /  24.9km/h 25mph /  40.2km/h 47% 0in /  0.0mm
07:14 61.2 °F /  16.2 °C 40.8 °F /  4.9 °C 29.6in /  1002.5hPa ONO 14.7mph /  23.7km/h 24.6mph /  39.6km/h 47% 0in /  0.0mm
07:19 61.3 °F /  16.3 °C 40.8 °F /  4.9 °C 29.6in /  1003.1hPa ONO 14mph /  22.6km/h 32.4mph /  52.1km/h 46.9% 0in /  0.0mm
07:24 61.5 °F /  16.4 °C 40.5 °F /  4.7 °C 29.6in /  1003.1hPa ONO 13.5mph /  21.7km/h 32.2mph /  51.8km/h 46% 0in /  0.0mm
07:29 61.5 °F /  16.4 °C 40.5 °F /  4.7 °C 29.6in /  1003.1hPa ONO 14.4mph /  23.2km/h 23mph /  37km/h 46% 0in /  0.0mm
07:34 61.3 °F /  16.3 °C 40.6 °F /  4.8 °C 29.6in /  1003.6hPa ONO 15.2mph /  24.5km/h 22mph /  35.4km/h 46.6% 0in /  0.0mm
07:39 61.2 °F /  16.2 °C 40.8 °F /  4.9 °C 29.6in /  1003.6hPa ONO 13.1mph /  21.1km/h 20.1mph /  32.3km/h 47% 0in /  0.0mm
07:44 61.5 °F /  16.4 °C 40.5 °F /  4.7 °C 29.6in /  1003.6hPa Oeste 11.4mph /  18.4km/h 24.6mph /  39.6km/h 46.2% 0in /  0.0mm
07:49 61.5 °F /  16.4 °C 40.6 °F /  4.8 °C 29.6in /  1003.8hPa ONO 12.2mph /  19.7km/h 25mph /  40.2km/h 46% 0in /  0.0mm
07:54 61.7 °F /  16.5 °C 40.6 °F /  4.8 °C 29.6in /  1003.8hPa ONO 13mph /  20.9km/h 21mph /  33.8km/h 46% 0in /  0.0mm
07:59 61.5 °F /  16.4 °C 40.5 °F /  4.7 °C 29.6in /  1003.8hPa Oeste 13.3mph /  21.4km/h 25.3mph /  40.7km/h 46% 0in /  0.0mm
08:04 61.5 °F /  16.4 °C 40.5 °F /  4.7 °C 29.7in /  1004.0hPa ONO 13.5mph /  21.7km/h 25mph /  40.2km/h 46% 0in /  0.0mm
08:09 61.5 °F /  16.4 °C 40.5 °F /  4.7 °C 29.7in /  1004.0hPa ONO 12mph /  19.3km/h 17mph /  27.4km/h 46% 0in /  0.0mm
08:14 61.3 °F /  16.3 °C 40.8 °F /  4.9 °C 29.7in /  1004.0hPa Oeste 10.7mph /  17.2km/h 16mph /  25.7km/h 46.6% 0in /  0.0mm
08:19 61.3 °F /  16.3 °C 40.8 °F /  4.9 °C 29.7in /  1004.4hPa ONO 9.2mph /  14.8km/h 15mph /  24.1km/h 47% 0in /  0.0mm
08:24 61.3 °F /  16.3 °C 40.8 °F /  4.9 °C 29.7in /  1004.4hPa ONO 8.1mph /  13km/h 18.1mph /  29.1km/h 47% 0in /  0.0mm
08:29 61.5 °F /  16.4 °C 40.6 °F /  4.8 °C 29.7in /  1004.4hPa ONO 8.3mph /  13.4km/h 18.4mph /  29.6km/h 46.2% 0in /  0.0mm
08:34 61.7 °F /  16.5 °C 40.8 °F /  4.9 °C 29.7in /  1004.6hPa ONO 8.5mph /  13.7km/h 17mph /  27.4km/h 46% 0in /  0.0mm
08:39 61.9 °F /  16.6 °C 40.6 °F /  4.8 °C 29.7in /  1004.6hPa ONO 8.9mph /  14.3km/h 31.1mph /  50.1km/h 45.6% 0in /  0.0mm
08:44 62.2 °F /  16.8 °C 40.3 °F /  4.6 °C 29.7in /  1004.6hPa ONO 9.2mph /  14.8km/h 31mph /  49.9km/h 44.5% 0in /  0.0mm
08:49 62.4 °F /  16.9 °C 40.5 °F /  4.7 °C 29.7in /  1005.1hPa NO 11mph /  17.7km/h 23mph /  37km/h 44.3% 0in /  0.0mm
08:54 62.2 °F /  16.8 °C 40.5 °F /  4.7 °C 29.7in /  1005.1hPa ONO 12.5mph /  20.1km/h 24.2mph /  38.9km/h 44.7% 0in /  0.0mm
08:59 62.2 °F /  16.8 °C 40.1 °F /  4.5 °C 29.7in /  1005.1hPa ONO 11.7mph /  18.8km/h 24mph /  38.6km/h 44% 0in /  0.0mm
09:04 62.4 °F /  16.9 °C 40.3 °F /  4.6 °C 29.7in /  1005.4hPa ONO 11.2mph /  18km/h 20mph /  32.2km/h 44% 0in /  0.0mm
09:09 62.4 °F /  16.9 °C 40.3 °F /  4.6 °C 29.7in /  1005.4hPa ONO 10.7mph /  17.2km/h 17mph /  27.4km/h 44% 0in /  0.0mm
09:14 62.2 °F /  16.8 °C 40.5 °F /  4.7 °C 29.7in /  1005.4hPa ONO 10.2mph /  16.4km/h 14mph /  22.5km/h 44.6% 0in /  0.0mm
09:19 62.2 °F /  16.8 °C 40.1 °F /  4.5 °C 29.7in /  1005.4hPa ONO 8.7mph /  14km/h 19.7mph /  31.7km/h 44.3% 0in /  0.0mm
09:24 62.2 °F /  16.8 °C 40.3 °F /  4.6 °C 29.7in /  1005.4hPa ONO 7.4mph /  11.9km/h 20mph /  32.2km/h 44.3% 0in /  0.0mm
09:29 62.2 °F /  16.8 °C 40.3 °F /  4.6 °C 29.7in /  1005.4hPa ONO 8.6mph /  13.9km/h 18.4mph /  29.6km/h 44.4% 0in /  0.0mm
09:34 62.2 °F /  16.8 °C 40.1 °F /  4.5 °C 29.7in /  1005.6hPa ONO 9.7mph /  15.6km/h 18mph /  29km/h 44% 0in /  0.0mm
09:39 62.4 °F /  16.9 °C 40.3 °F /  4.6 °C 29.7in /  1005.6hPa ONO 10.3mph /  16.5km/h 26.5mph /  42.6km/h 44% 0in /  0.0mm
09:44 62.8 °F /  17.1 °C 40.3 °F /  4.6 °C 29.7in /  1005.6hPa ONO 10.7mph /  17.2km/h 26mph /  41.8km/h 43.7% 0in /  0.0mm
09:49 62.8 °F /  17.1 °C 40.1 °F /  4.5 °C 29.7in /  1005.8hPa ONO 10.7mph /  17.2km/h 18mph /  29km/h 43.5% 0in /  0.0mm
09:54 62.8 °F /  17.1 °C 40.5 °F /  4.7 °C 29.7in /  1005.8hPa ONO 10.7mph /  17.2km/h 13mph /  20.9km/h 44% 0in /  0.0mm
09:59 62.4 °F /  16.9 °C 40.3 °F /  4.6 °C 29.7in /  1005.8hPa ONO 8.8mph /  14.1km/h 16.3mph /  26.2km/h 44% 0in /  0.0mm
10:04 62.8 °F /  17.1 °C 40.5 °F /  4.7 °C 29.7in /  1006.0hPa NO 7.6mph /  12.2km/h 16.3mph /  26.2km/h 44% 0in /  0.0mm
10:09 62.8 °F /  17.1 °C 40.5 °F /  4.7 °C 29.7in /  1006.0hPa ONO 9mph /  14.5km/h 16mph /  25.7km/h 44% 0in /  0.0mm
10:14 62.8 °F /  17.1 °C 40.5 °F /  4.7 °C 29.7in /  1006.0hPa NO 10.2mph /  16.4km/h 19.7mph /  31.7km/h 44% 0in /  0.0mm
10:19 62.8 °F /  17.1 °C 40.5 °F /  4.7 °C 29.7in /  1006.3hPa NO 9.6mph /  15.5km/h 20mph /  32.2km/h 44% 0in /  0.0mm
10:24 63 °F /  17.2 °C 40.6 °F /  4.8 °C 29.7in /  1006.3hPa NO 9.2mph /  14.8km/h 20.7mph /  33.3km/h 44% 0in /  0.0mm
10:29 63 °F /  17.2 °C 40.6 °F /  4.8 °C 29.7in /  1006.3hPa ONO 10mph /  16.1km/h 23.5mph /  37.8km/h 43.8% 0in /  0.0mm
10:34 63.1 °F /  17.3 °C 40.3 °F /  4.6 °C 29.7in /  1006.5hPa ONO 10.7mph /  17.2km/h 24.2mph /  38.9km/h 43% 0in /  0.0mm
10:39 63.1 °F /  17.3 °C 40.3 °F /  4.6 °C 29.7in /  1006.5hPa ONO 11.8mph /  19km/h 24mph /  38.6km/h 43% 0in /  0.0mm
10:44 63.3 °F /  17.4 °C 40.5 °F /  4.7 °C 29.7in /  1006.5hPa ONO 13mph /  20.9km/h 25.3mph /  40.7km/h 43% 0in /  0.0mm
10:49 63.5 °F /  17.5 °C 40.5 °F /  4.7 °C 29.7in /  1006.5hPa ONO 13mph /  20.9km/h 25mph /  40.2km/h 43% 0in /  0.0mm
10:54 63.5 °F /  17.5 °C 40.6 °F /  4.8 °C 29.7in /  1006.3hPa ONO 13mph /  20.9km/h 24.2mph /  38.9km/h 43% 0in /  0.0mm
10:59 63.5 °F /  17.5 °C 40.6 °F /  4.8 °C 29.7in /  1006.3hPa ONO 12.7mph /  20.4km/h 24mph /  38.6km/h 43.1% 0in /  0.0mm
11:04 63.7 °F /  17.6 °C 40.8 °F /  4.9 °C 29.7in /  1006.4hPa ONO 12.5mph /  20.1km/h 26.5mph /  42.6km/h 43% 0in /  0.0mm
11:09 63.9 °F /  17.7 °C 40.6 °F /  4.8 °C 29.7in /  1006.4hPa ONO 13mph /  21km/h 31.1mph /  50.1km/h 42.6% 0in /  0.0mm
11:14 63.9 °F /  17.7 °C 40.6 °F /  4.8 °C 29.7in /  1006.4hPa ONO 13.5mph /  21.7km/h 31mph /  49.9km/h 42.6% 0in /  0.0mm
11:19 63.9 °F /  17.7 °C 40.8 °F /  4.9 °C 29.7in /  1006.8hPa NO 14.2mph /  22.8km/h 26.5mph /  42.6km/h 43% 0in /  0.0mm
11:24 64 °F /  17.8 °C 41 °F /  5 °C 29.7in /  1006.8hPa ONO 14.7mph /  23.7km/h 26mph /  41.8km/h 42.9% 0in /  0.0mm
11:29 64 °F /  17.8 °C 41 °F /  5 °C 29.7in /  1006.8hPa ONO 14.6mph /  23.5km/h 25mph /  40.2km/h 42.9% 0in /  0.0mm
11:34 64.2 °F /  17.9 °C 40.8 °F /  4.9 °C 29.7in /  1006.8hPa ONO 14.5mph /  23.3km/h 26.5mph /  42.6km/h 42.5% 0in /  0.0mm
11:39 64.2 °F /  17.9 °C 40.3 °F /  4.6 °C 29.7in /  1006.7hPa ONO 13.7mph /  22km/h 28.8mph /  46.3km/h 41.5% 0in /  0.0mm
11:44 64.2 °F /  17.9 °C 39.9 °F /  4.4 °C 29.7in /  1006.7hPa ONO 13mph /  20.9km/h 29mph /  46.7km/h 41% 0in /  0.0mm
11:49 64.2 °F /  17.9 °C 39.7 °F /  4.3 °C 29.7in /  1006.7hPa ONO 14.8mph /  23.8km/h 27.9mph /  44.9km/h 40.6% 0in /  0.0mm
11:54 64.4 °F /  18 °C 39.6 °F /  4.2 °C 29.7in /  1006.6hPa ONO 16.3mph /  26.2km/h 29.1mph /  46.8km/h 40% 0in /  0.0mm
11:59 64.6 °F /  18.1 °C 40.1 °F /  4.5 °C 29.7in /  1006.6hPa ONO 15.8mph /  25.5km/h 29mph /  46.7km/h 40.9% 0in /  0.0mm
12:04 64.6 °F /  18.1 °C 40.3 °F /  4.6 °C 29.7in /  1006.6hPa ONO 15.6mph /  25.1km/h 27.6mph /  44.4km/h 41% 0in /  0.0mm
12:09 64.6 °F /  18.1 °C 40.3 °F /  4.6 °C 29.7in /  1006.6hPa ONO 14.7mph /  23.7km/h 29.9mph /  48.1km/h 41.1% 0in /  0.0mm
12:14 64.6 °F /  18.1 °C 40.5 °F /  4.7 °C 29.7in /  1006.6hPa ONO 14mph /  22.5km/h 30mph /  48.3km/h 41.2% 0in /  0.0mm
12:19 64.8 °F /  18.2 °C 40.6 °F /  4.8 °C 29.7in /  1006.7hPa ONO 16.3mph /  26.3km/h 29mph /  46.7km/h 41.5% 0in /  0.0mm
12:24 64.9 °F /  18.3 °C 40.8 °F /  4.9 °C 29.7in /  1006.7hPa ONO 18.1mph /  29.1km/h 26mph /  41.8km/h 41.2% 0in /  0.0mm
12:29 64.9 °F /  18.3 °C 40.6 °F /  4.8 °C 29.7in /  1006.7hPa ONO 16.3mph /  26.2km/h 32.2mph /  51.8km/h 41% 0in /  0.0mm
12:34 64.8 °F /  18.2 °C 40.5 °F /  4.7 °C 29.7in /  1006.7hPa ONO 14.7mph /  23.7km/h 32mph /  51.5km/h 41% 0in /  0.0mm
12:39 64.8 °F /  18.2 °C 40.6 °F /  4.8 °C 29.7in /  1006.6hPa ONO 15mph /  24.1km/h 29.4mph /  47.3km/h 41% 0in /  0.0mm
12:44 64.9 °F /  18.3 °C 40.6 °F /  4.8 °C 29.7in /  1006.6hPa ONO 15.2mph /  24.5km/h 30mph /  48.3km/h 41% 0in /  0.0mm
12:49 64.9 °F /  18.3 °C 40.6 °F /  4.8 °C 29.7in /  1006.6hPa ONO 14.9mph /  24km/h 25mph /  40.2km/h 41% 0in /  0.0mm
12:54 64.9 °F /  18.3 °C 39.9 °F /  4.4 °C 29.7in /  1006.6hPa NO 14.7mph /  23.7km/h 25mph /  40.2km/h 40% 0in /  0.0mm
12:59 64.9 °F /  18.3 °C 40.5 °F /  4.7 °C 29.7in /  1006.6hPa ONO 14.3mph /  23km/h 24mph /  38.6km/h 40.7% 0in /  0.0mm
13:04 64.9 °F /  18.3 °C 40.6 °F /  4.8 °C 29.7in /  1006.6hPa ONO 14mph /  22.5km/h 23mph /  37km/h 40.9% 0in /  0.0mm
13:09 64.9 °F /  18.3 °C 40.3 °F /  4.6 °C 29.7in /  1006.5hPa ONO 13.4mph /  21.6km/h 24.8mph /  39.9km/h 40.2% 0in /  0.0mm
13:14 65.1 °F /  18.4 °C 39.7 °F /  4.3 °C 29.7in /  1006.5hPa ONO 13mph /  20.9km/h 26.5mph /  42.6km/h 39.3% 0in /  0.0mm
13:19 65.1 °F /  18.4 °C 39.7 °F /  4.3 °C 29.7in /  1006.5hPa NO 13.9mph /  22.3km/h 26.5mph /  42.6km/h 39.3% 0in /  0.0mm
13:24 65.3 °F /  18.5 °C 39.7 °F /  4.3 °C 29.7in /  1006.3hPa NO 14.5mph /  23.3km/h 23mph /  37km/h 38.9% 0in /  0.0mm
13:29 65.5 °F /  18.6 °C 39.4 °F /  4.1 °C 29.7in /  1006.3hPa NO 13.3mph /  21.4km/h 24.6mph /  39.6km/h 38.2% 0in /  0.0mm
13:34 65.5 °F /  18.6 °C 39.2 °F /  4 °C 29.7in /  1006.3hPa NO 12.3mph /  19.8km/h 25mph /  40.2km/h 38% 0in /  0.0mm
13:39 65.5 °F /  18.6 °C 39.4 °F /  4.1 °C 29.7in /  1006.3hPa NO 12.7mph /  20.4km/h 20mph /  32.2km/h 38.3% 0in /  0.0mm
13:44 65.7 °F /  18.7 °C 39.9 °F /  4.4 °C 29.7in /  1006.3hPa ONO 13mph /  20.9km/h 23mph /  37km/h 39% 0in /  0.0mm
13:49 65.7 °F /  18.7 °C 39.9 °F /  4.4 °C 29.7in /  1006.3hPa NO 12mph /  19.3km/h 23mph /  37km/h 39% 0in /  0.0mm
13:54 65.7 °F /  18.7 °C 39.9 °F /  4.4 °C 29.7in /  1006.2hPa ONO 11.2mph /  18km/h 25.6mph /  41.2km/h 39% 0in /  0.0mm
13:59 65.5 °F /  18.6 °C 39.7 °F /  4.3 °C 29.7in /  1006.2hPa ONO 12.7mph /  20.5km/h 26mph /  41.8km/h 38.7% 0in /  0.0mm
14:04 65.5 °F /  18.6 °C 39.9 °F /  4.4 °C 29.7in /  1006.2hPa ONO 13.7mph /  22.1km/h 26mph /  41.8km/h 39% 0in /  0.0mm
14:09 65.5 °F /  18.6 °C 39.9 °F /  4.4 °C 29.7in /  1006.2hPa ONO 13.7mph /  22.1km/h 26.3mph /  42.3km/h 39% 0in /  0.0mm
14:14 65.7 °F /  18.7 °C 39.9 °F /  4.4 °C 29.7in /  1006.2hPa ONO 13.7mph /  22.1km/h 26.5mph /  42.6km/h 39% 0in /  0.0mm
14:19 65.7 °F /  18.7 °C 39.9 °F /  4.4 °C 29.7in /  1006.2hPa NO 12.9mph /  20.8km/h 24mph /  38.6km/h 39% 0in /  0.0mm
14:24 65.7 °F /  18.7 °C 39.9 °F /  4.4 °C 29.7in /  1006.1hPa ONO 12.3mph /  19.8km/h 23mph /  37km/h 39% 0in /  0.0mm
14:29 65.7 °F /  18.7 °C 39.9 °F /  4.4 °C 29.7in /  1006.1hPa ONO 12.1mph /  19.4km/h 26.5mph /  42.6km/h 38.8% 0in /  0.0mm
14:34 65.7 °F /  18.7 °C 39.9 °F /  4.4 °C 29.7in /  1006.2hPa ONO 11.8mph /  19km/h 26.5mph /  42.6km/h 39% 0in /  0.0mm
14:39 65.7 °F /  18.7 °C 39.9 °F /  4.4 °C 29.7in /  1006.2hPa ONO 12.7mph /  20.5km/h 26mph /  41.8km/h 39% 0in /  0.0mm
14:44 65.7 °F /  18.7 °C 39.9 °F /  4.4 °C 29.7in /  1006.2hPa NO 13.5mph /  21.7km/h 24.8mph /  39.9km/h 39% 0in /  0.0mm
14:49 65.7 °F /  18.7 °C 39.9 °F /  4.4 °C 29.7in /  1006.2hPa ONO 13.8mph /  22.2km/h 29.1mph /  46.8km/h 39% 0in /  0.0mm
14:54 65.5 °F /  18.6 °C 39.9 °F /  4.4 °C 29.7in /  1006.2hPa NO 14mph /  22.5km/h 30.1mph /  48.4km/h 39% 0in /  0.0mm
14:59 65.5 °F /  18.6 °C 40.3 °F /  4.6 °C 29.7in /  1006.2hPa NO 15.9mph /  25.6km/h 31.1mph /  50.1km/h 39.7% 0in /  0.0mm
15:04 65.5 °F /  18.6 °C 41 °F /  5 °C 29.7in /  1006.2hPa ONO 17mph /  27.4km/h 31mph /  49.9km/h 41% 0in /  0.0mm
15:09 65.5 °F /  18.6 °C 41.2 °F /  5.1 °C 29.7in /  1006.2hPa ONO 15.4mph /  24.8km/h 29.1mph /  46.8km/h 41% 0in /  0.0mm
15:14 65.5 °F /  18.6 °C 41 °F /  5 °C 29.7in /  1006.2hPa ONO 14mph /  22.5km/h 30.1mph /  48.4km/h 40.7% 0in /  0.0mm
15:19 65.5 °F /  18.6 °C 40.8 °F /  4.9 °C 29.7in /  1006.2hPa ONO 16.1mph /  25.9km/h 34.8mph /  56km/h 40.6% 0in /  0.0mm
15:24 65.7 °F /  18.7 °C 40.8 °F /  4.9 °C 29.7in /  1006.1hPa ONO 17.8mph /  28.7km/h 36mph /  57.9km/h 40.2% 0in /  0.0mm
15:29 65.8 °F /  18.8 °C 40.8 °F /  4.9 °C 29.7in /  1006.1hPa ONO 17.6mph /  28.4km/h 36.9mph /  59.4km/h 40% 0in /  0.0mm
15:34 65.8 °F /  18.8 °C 40.8 °F /  4.9 °C 29.7in /  1006.2hPa ONO 17.5mph /  28.2km/h 37mph /  59.5km/h 40% 0in /  0.0mm
15:39 66 °F /  18.9 °C 41 °F /  5 °C 29.7in /  1006.2hPa NO 18.8mph /  30.3km/h 37mph /  59.5km/h 40% 0in /  0.0mm
15:44 66 °F /  18.9 °C 40.8 °F /  4.9 °C 29.7in /  1006.2hPa ONO 20.1mph /  32.4km/h 32mph /  51.5km/h 39.8% 0in /  0.0mm
15:49 65.8 °F /  18.8 °C 40.8 °F /  4.9 °C 29.7in /  1006.4hPa NO 19mph /  30.6km/h 32mph /  51.5km/h 40% 0in /  0.0mm
15:54 66 °F /  18.9 °C 41 °F /  5 °C 29.7in /  1006.4hPa ONO 18.1mph /  29.1km/h 32.7mph /  52.6km/h 40% 0in /  0.0mm
15:59 66 °F /  18.9 °C 41 °F /  5 °C 29.7in /  1006.4hPa ONO 17.7mph /  28.5km/h 33mph /  53.1km/h 40% 0in /  0.0mm
16:04 65.8 °F /  18.8 °C 40.8 °F /  4.9 °C 29.7in /  1006.5hPa ONO 17.5mph /  28.2km/h 33.7mph /  54.2km/h 40% 0in /  0.0mm
16:09 65.8 °F /  18.8 °C 40.8 °F /  4.9 °C 29.7in /  1006.5hPa NO 18.3mph /  29.5km/h 34mph /  54.7km/h 40% 0in /  0.0mm
16:14 66 °F /  18.9 °C 41 °F /  5 °C 29.7in /  1006.5hPa NO 19mph /  30.6km/h 32mph /  51.5km/h 40% 0in /  0.0mm
16:19 66 °F /  18.9 °C 41 °F /  5 °C 29.7in /  1006.6hPa ONO 18.1mph /  29.2km/h 32.2mph /  51.8km/h 40% 0in /  0.0mm
16:24 65.8 °F /  18.8 °C 41.4 °F /  5.2 °C 29.7in /  1006.6hPa ONO 17.5mph /  28.2km/h 32mph /  51.5km/h 40.8% 0in /  0.0mm
16:29 65.8 °F /  18.8 °C 41.5 °F /  5.3 °C 29.7in /  1006.6hPa NO 17.6mph /  28.4km/h 33.4mph /  53.8km/h 41% 0in /  0.0mm
16:34 65.8 °F /  18.8 °C 41.5 °F /  5.3 °C 29.7in /  1006.8hPa NO 17.8mph /  28.7km/h 34.2mph /  55km/h 41% 0in /  0.0mm
16:39 65.8 °F /  18.8 °C 41.4 °F /  5.2 °C 29.7in /  1006.8hPa NO 18mph /  28.9km/h 34mph /  54.7km/h 41% 0in /  0.0mm
16:44 65.7 °F /  18.7 °C 41.7 °F /  5.4 °C 29.7in /  1006.8hPa NO 18.1mph /  29.1km/h 30mph /  48.3km/h 41.8% 0in /  0.0mm
16:49 65.7 °F /  18.7 °C 41.9 °F /  5.5 °C 29.7in /  1006.8hPa NO 15.5mph /  25km/h 25.3mph /  40.7km/h 42% 0in /  0.0mm
16:54 65.5 °F /  18.6 °C 41.9 °F /  5.5 °C 29.7in /  1006.8hPa ONO 13.5mph /  21.7km/h 25.6mph /  41.2km/h 42.2% 0in /  0.0mm
16:59 65.5 °F /  18.6 °C 41.7 °F /  5.4 °C 29.7in /  1006.8hPa NO 13.6mph /  21.9km/h 26mph /  41.8km/h 42% 0in /  0.0mm
17:04 65.5 °F /  18.6 °C 42.1 °F /  5.6 °C 29.7in /  1006.9hPa NO 13.7mph /  22.1km/h 25mph /  40.2km/h 42.4% 0in /  0.0mm
17:09 64.4 °F /  18 °C 43.7 °F /  6.5 °C 29.7in /  1006.9hPa NNO 12.9mph /  20.8km/h 21mph /  33.8km/h 47% 0in /  0.0mm
17:14 62.6 °F /  17 °C 44.1 °F /  6.7 °C 29.7in /  1006.9hPa North 12.3mph /  19.8km/h 15mph /  24.1km/h 50.8% 0in /  0.0mm
17:19 61.7 °F /  16.5 °C 44.4 °F /  6.9 °C 29.7in /  1007.3hPa NNE 8.3mph /  13.4km/h 10mph /  16.1km/h 53% 0in /  0.0mm
17:24 61.2 °F /  16.2 °C 44.2 °F /  6.8 °C 29.7in /  1007.3hPa NNE 5.2mph /  8.4km/h 9mph /  14.5km/h 54% 0in /  0.0mm
17:29 60.6 °F /  15.9 °C 44.4 °F /  6.9 °C 29.7in /  1007.3hPa North 5.2mph /  8.4km/h 8.1mph /  13km/h 54.8% 0in /  0.0mm
17:34 60.6 °F /  15.9 °C 44.4 °F /  6.9 °C 29.8in /  1007.6hPa NE 5.2mph /  8.4km/h 8.5mph /  13.7km/h 55% 0in /  0.0mm
17:39 60.4 °F /  15.8 °C 44.6 °F /  7 °C 29.8in /  1007.6hPa NE 4.9mph /  7.9km/h 9.7mph /  15.6km/h 55.9% 0in /  0.0mm
17:44 60.3 °F /  15.7 °C 44.8 °F /  7.1 °C 29.8in /  1007.6hPa NNE 4.7mph /  7.6km/h 10mph /  16.1km/h 56.4% 0in /  0.0mm
17:49 60.3 °F /  15.7 °C 45.1 °F /  7.3 °C 29.8in /  1007.8hPa NNE 4.7mph /  7.6km/h 9mph /  14.5km/h 57.4% 0in /  0.0mm
17:54 59.9 °F /  15.5 °C 45.3 °F /  7.4 °C 29.8in /  1007.8hPa NNE 4.7mph /  7.6km/h 10.4mph /  16.7km/h 58.6% 0in /  0.0mm
17:59 59.5 °F /  15.3 °C 45.5 °F /  7.5 °C 29.8in /  1007.8hPa NNE 4.5mph /  7.2km/h 11.2mph /  18km/h 59.6% 0in /  0.0mm
18:04 59.4 °F /  15.2 °C 45.5 °F /  7.5 °C 29.8in /  1007.9hPa NNE 4.3mph /  6.9km/h 12mph /  19.3km/h 60.3% 0in /  0.0mm
18:09 58.8 °F /  14.9 °C 45.7 °F /  7.6 °C 29.8in /  1007.9hPa NNE 5.3mph /  8.5km/h 12mph /  19.3km/h 61.5% 0in /  0.0mm
18:14 58.5 °F /  14.7 °C 46 °F /  7.8 °C 29.8in /  1007.9hPa NNE 5.9mph /  9.5km/h 13.8mph /  22.2km/h 63% 0in /  0.0mm
18:19 58.1 °F /  14.5 °C 46 °F /  7.8 °C 29.8in /  1008.3hPa NNE 7.5mph /  12km/h 15.9mph /  25.6km/h 64.1% 0in /  0.0mm
18:24 57.9 °F /  14.4 °C 46 °F /  7.8 °C 29.8in /  1008.3hPa North 8.7mph /  14km/h 16mph /  25.7km/h 64.6% 0in /  0.0mm
18:29 57.7 °F /  14.3 °C 45.7 °F /  7.6 °C 29.8in /  1008.3hPa NE 7.5mph /  12km/h 13mph /  20.9km/h 64% 0in /  0.0mm
18:34 57.7 °F /  14.3 °C 45.7 °F /  7.6 °C 29.8in /  1008.5hPa NNE 6.4mph /  10.3km/h 13mph /  20.9km/h 64% 0in /  0.0mm
18:39 57.7 °F /  14.3 °C 45.5 °F /  7.5 °C 29.8in /  1008.5hPa NE 7.1mph /  11.4km/h 13.8mph /  22.2km/h 64% 0in /  0.0mm
18:44 57.6 °F /  14.2 °C 45.5 °F /  7.5 °C 29.8in /  1008.5hPa NE 7.6mph /  12.2km/h 14mph /  22.5km/h 64% 0in /  0.0mm
18:49 57.4 °F /  14.1 °C 45.3 °F /  7.4 °C 29.8in /  1008.7hPa NE 8.1mph /  13.1km/h 13mph /  20.9km/h 64% 0in /  0.0mm
18:54 57.4 °F /  14.1 °C 45.3 °F /  7.4 °C 29.8in /  1008.7hPa NE 8.5mph /  13.7km/h 12mph /  19.3km/h 64% 0in /  0.0mm
18:59 57.4 °F /  14.1 °C 45.3 °F /  7.4 °C 29.8in /  1008.7hPa NNE 7.2mph /  11.6km/h 12mph /  19.3km/h 64% 0in /  0.0mm
19:04 57.2 °F /  14 °C 45.5 °F /  7.5 °C 29.8in /  1008.9hPa NE 6.4mph /  10.3km/h 12mph /  19.3km/h 65% 0in /  0.0mm
19:09 57 °F /  13.9 °C 45.3 °F /  7.4 °C 29.8in /  1008.9hPa NE 5.7mph /  9.2km/h 9mph /  14.5km/h 64.8% 0in /  0.0mm
19:14 57 °F /  13.9 °C 45.1 °F /  7.3 °C 29.8in /  1008.9hPa North 5.2mph /  8.4km/h 7.6mph /  12.2km/h 64.2% 0in /  0.0mm
19:19 57 °F /  13.9 °C 45 °F /  7.2 °C 29.8in /  1009.3hPa NE 4.9mph /  7.9km/h 10.4mph /  16.7km/h 64.1% 0in /  0.0mm
19:24 57 °F /  13.9 °C 44.6 °F /  7 °C 29.8in /  1009.3hPa NE 4.7mph /  7.6km/h 10mph /  16.1km/h 63% 0in /  0.0mm
19:29 57.2 °F /  14 °C 44.4 °F /  6.9 °C 29.8in /  1009.3hPa NE 4.1mph /  6.6km/h 7mph /  11.3km/h 62.2% 0in /  0.0mm
19:34 57.4 °F /  14.1 °C 44.1 °F /  6.7 °C 29.8in /  1009.5hPa ENE 3.6mph /  5.8km/h 5mph /  8km/h 61% 0in /  0.0mm
19:39 57.6 °F /  14.2 °C 43.9 °F /  6.6 °C 29.8in /  1009.5hPa NE 3.3mph /  5.3km/h 5.2mph /  8.4km/h 60.1% 0in /  0.0mm
19:44 57.6 °F /  14.2 °C 43.7 °F /  6.5 °C 29.8in /  1009.5hPa NE 2.9mph /  4.6km/h 5mph /  8km/h 59.6% 0in /  0.0mm
19:49 57.7 °F /  14.3 °C 43.5 °F /  6.4 °C 29.8in /  1009.7hPa NNE 2.9mph /  4.7km/h 5.9mph /  9.5km/h 59.1% 0in /  0.0mm
19:54 57.7 °F /  14.3 °C 43.9 °F /  6.6 °C 29.8in /  1009.7hPa NNE 2.9mph /  4.6km/h 6mph /  9.7km/h 60% 0in /  0.0mm
19:59 57.7 °F /  14.3 °C 43.9 °F /  6.6 °C 29.8in /  1009.7hPa NE 3mph /  4.9km/h 6mph /  9.7km/h 60% 0in /  0.0mm
20:04 57.6 °F /  14.2 °C 43.7 °F /  6.5 °C 29.8in /  1009.8hPa NE 3.1mph /  5km/h 5mph /  8km/h 59.7% 0in /  0.0mm
20:09 57.6 °F /  14.2 °C 43.5 °F /  6.4 °C 29.8in /  1009.8hPa NE 2.4mph /  3.9km/h 4mph /  6.4km/h 59.3% 0in /  0.0mm
20:14 57.7 °F /  14.3 °C 43.5 °F /  6.4 °C 29.8in /  1009.8hPa NNE 1.8mph /  2.9km/h 4.7mph /  7.6km/h 59.4% 0in /  0.0mm
20:19 57.7 °F /  14.3 °C 44.1 °F /  6.7 °C 29.8in /  1010.1hPa NNO 1.6mph /  2.6km/h 5mph /  8km/h 60.2% 0in /  0.0mm
20:24 57.6 °F /  14.2 °C 44.1 °F /  6.7 °C 29.8in /  1010.1hPa North 1.4mph /  2.2km/h 4mph /  6.4km/h 60.5% 0in /  0.0mm
20:29 57.6 °F /  14.2 °C 43.7 °F /  6.5 °C 29.8in /  1010.1hPa NNE 1.7mph /  2.8km/h 4mph /  6.4km/h 59.9% 0in /  0.0mm
20:34 57.6 °F /  14.2 °C 43.3 °F /  6.3 °C 29.8in /  1010.2hPa ENE 2mph /  3.2km/h 6.4mph /  10.3km/h 59.2% 0in /  0.0mm
20:39 57.7 °F /  14.3 °C 44.1 °F /  6.7 °C 29.8in /  1010.2hPa OSO 2.6mph /  4.2km/h 7mph /  11.3km/h 60.4% 0in /  0.0mm
20:44 57.6 °F /  14.2 °C 43.7 °F /  6.5 °C 29.8in /  1010.2hPa ENE 3.1mph /  5km/h 10mph /  16.1km/h 59.7% 0in /  0.0mm
20:49 57.7 °F /  14.3 °C 43.2 °F /  6.2 °C 29.8in /  1010.4hPa Este 4.2mph /  6.8km/h 10.7mph /  17.2km/h 58.1% 0in /  0.0mm
20:54 57.9 °F /  14.4 °C 43.2 °F /  6.2 °C 29.8in /  1010.4hPa Este 5.2mph /  8.4km/h 11mph /  17.7km/h 58% 0in /  0.0mm
20:59 57.9 °F /  14.4 °C 43.2 °F /  6.2 °C 29.8in /  1010.4hPa ESE 4.5mph /  7.2km/h 8.1mph /  13km/h 58% 0in /  0.0mm
21:04 57.7 °F /  14.3 °C 43.2 °F /  6.2 °C 29.8in /  1010.4hPa ESE 4mph /  6.5km/h 8.1mph /  13km/h 58% 0in /  0.0mm
21:09 57.6 °F /  14.2 °C 43 °F /  6.1 °C 29.8in /  1010.4hPa SE 4.7mph /  7.5km/h 9.2mph /  14.8km/h 58% 0in /  0.0mm
21:14 57.6 °F /  14.2 °C 43 °F /  6.1 °C 29.8in /  1010.4hPa SSE 5.2mph /  8.4km/h 9.2mph /  14.8km/h 58% 0in /  0.0mm
21:19 57.6 °F /  14.2 °C 42.6 °F /  5.9 °C 29.8in /  1010.4hPa Sur 5.2mph /  8.4km/h 9.2mph /  14.8km/h 57.2% 0in /  0.0mm
21:24 57.7 °F /  14.3 °C 42.6 °F /  5.9 °C 29.8in /  1010.4hPa SO 5.2mph /  8.4km/h 9mph /  14.5km/h 57% 0in /  0.0mm
21:29 57.7 °F /  14.3 °C 42.4 °F /  5.8 °C 29.8in /  1010.4hPa SO 4.7mph /  7.6km/h 9.7mph /  15.6km/h 57% 0in /  0.0mm
21:34 58.1 °F /  14.5 °C 42.6 °F /  5.9 °C 29.8in /  1010.4hPa SO 4.3mph /  6.9km/h 10mph /  16.1km/h 56.2% 0in /  0.0mm
21:39 58.5 °F /  14.7 °C 42.3 °F /  5.7 °C 29.8in /  1010.4hPa OSO 4.3mph /  6.9km/h 9mph /  14.5km/h 55.1% 0in /  0.0mm
21:44 58.6 °F /  14.8 °C 42.3 °F /  5.7 °C 29.8in /  1010.4hPa SO 4.3mph /  6.9km/h 6.2mph /  10km/h 54.7% 0in /  0.0mm
21:49 58.8 °F /  14.9 °C 42.3 °F /  5.7 °C 29.8in /  1010.5hPa SSO 3.7mph /  5.9km/h 6mph /  9.7km/h 54% 0in /  0.0mm
21:54 58.8 °F /  14.9 °C 42.3 °F /  5.7 °C 29.8in /  1010.5hPa SO 3.1mph /  5km/h 5mph /  8km/h 54% 0in /  0.0mm
21:59 58.6 °F /  14.8 °C 42.3 °F /  5.7 °C 29.8in /  1010.5hPa Oeste 2.3mph /  3.7km/h 5.9mph /  9.5km/h 54.4% 0in /  0.0mm
22:04 58.6 °F /  14.8 °C 42.3 °F /  5.7 °C 29.8in /  1010.7hPa SO 1.8mph /  2.9km/h 8.1mph /  13km/h 54.4% 0in /  0.0mm
22:09 59.2 °F /  15.1 °C 42.1 °F /  5.6 °C 29.8in /  1010.7hPa SO 3mph /  4.8km/h 8mph /  12.9km/h 53.4% 0in /  0.0mm
22:14 59.2 °F /  15.1 °C 42.1 °F /  5.6 °C 29.8in /  1010.7hPa SO 4mph /  6.5km/h 7.6mph /  12.2km/h 53% 0in /  0.0mm
22:19 59.4 °F /  15.2 °C 42.1 °F /  5.6 °C 29.9in /  1010.8hPa SO 4.3mph /  7km/h 8.7mph /  14km/h 52.5% 0in /  0.0mm
22:24 59.9 °F /  15.5 °C 41.9 °F /  5.5 °C 29.9in /  1010.8hPa OSO 4.7mph /  7.6km/h 9.2mph /  14.8km/h 51.2% 0in /  0.0mm
22:29 60.3 °F /  15.7 °C 41.9 °F /  5.5 °C 29.9in /  1010.8hPa SO 5mph /  8km/h 9mph /  14.5km/h 51% 0in /  0.0mm
22:34 60.3 °F /  15.7 °C 42.1 °F /  5.6 °C 29.9in /  1011.0hPa SO 5.2mph /  8.4km/h 10.7mph /  17.2km/h 51% 0in /  0.0mm
22:39 60.4 °F /  15.8 °C 42.3 °F /  5.7 °C 29.9in /  1011.0hPa SO 5.2mph /  8.4km/h 11mph /  17.7km/h 51% 0in /  0.0mm
22:44 60.3 °F /  15.7 °C 42.1 °F /  5.6 °C 29.9in /  1011.0hPa SO 5.2mph /  8.4km/h 8.1mph /  13km/h 51% 0in /  0.0mm
22:49 60.3 °F /  15.7 °C 42.1 °F /  5.6 °C 29.9in /  1011.2hPa SO 4.9mph /  7.9km/h 8.1mph /  13km/h 51% 0in /  0.0mm
22:54 60.3 °F /  15.7 °C 41.9 °F /  5.5 °C 29.9in /  1011.2hPa SO 4.7mph /  7.6km/h 9.2mph /  14.8km/h 51% 0in /  0.0mm
22:59 60.3 °F /  15.7 °C 42.1 °F /  5.6 °C 29.9in /  1011.2hPa OSO 5.7mph /  9.1km/h 9.2mph /  14.8km/h 51% 0in /  0.0mm
23:04 60.3 °F /  15.7 °C 42.1 °F /  5.6 °C 29.9in /  1011.2hPa OSO 6.2mph /  10km/h 10.4mph /  16.7km/h 51% 0in /  0.0mm
23:09 60.3 °F /  15.7 °C 42.1 °F /  5.6 °C 29.9in /  1011.2hPa OSO 6.2mph /  10km/h 11.8mph /  19km/h 51% 0in /  0.0mm
23:14 60.3 °F /  15.7 °C 41.9 °F /  5.5 °C 29.9in /  1011.2hPa OSO 6.2mph /  10km/h 12mph /  19.3km/h 50.8% 0in /  0.0mm
23:19 60.3 °F /  15.7 °C 41.5 °F /  5.3 °C 29.9in /  1011.2hPa OSO 6.2mph /  10km/h 10.4mph /  16.7km/h 50% 0in /  0.0mm
23:24 60.3 °F /  15.7 °C 41.5 °F /  5.3 °C 29.9in /  1011.2hPa OSO 6.2mph /  10km/h 10mph /  16.1km/h 50% 0in /  0.0mm
23:29 60.1 °F /  15.6 °C 41.4 °F /  5.2 °C 29.9in /  1011.2hPa OSO 5.8mph /  9.3km/h 10.7mph /  17.2km/h 50% 0in /  0.0mm
23:34 60.1 °F /  15.6 °C 41.4 °F /  5.2 °C 29.9in /  1011.3hPa OSO 5.4mph /  8.7km/h 11mph /  17.7km/h 50% 0in /  0.0mm
23:39 60.3 °F /  15.7 °C 41.2 °F /  5.1 °C 29.9in /  1011.3hPa OSO 5.4mph /  8.7km/h 10.4mph /  16.7km/h 49.5% 0in /  0.0mm
23:44 60.3 °F /  15.7 °C 41 °F /  5 °C 29.9in /  1011.3hPa Oeste 5.4mph /  8.7km/h 10mph /  16.1km/h 49% 0in /  0.0mm
23:49 60.3 °F /  15.7 °C 41 °F /  5 °C 29.9in /  1011.4hPa OSO 5.4mph /  8.7km/h 10.4mph /  16.7km/h 49% 0in /  0.0mm
23:54 60.3 °F /  15.7 °C 41 °F /  5 °C 29.9in /  1011.4hPa Oeste 5.4mph /  8.7km/h 10mph /  16.1km/h 49% 0in /  0.0mm
23:59 60.3 °F /  15.7 °C 41 °F /  5 °C 29.9in /  1011.4hPa Oeste 5.3mph /  8.5km/h 9mph /  14.5km/h 49% 0in /  0.0mm
Murcia-Puente Tocinos, Espa?a
Compliments of Weather Underground - 3.25 mb

La estación de MeteoMurcia.com, publica sus datos en los siguientes proyectos:

Weather Underground PWS IMURCIAP2 Meteoclimatic www.awekas.at

W3Counter
Web Analytics